createdAt,value
2024-04-04T00:00:38.000Z,0
2024-04-04T00:01:42.000Z,0
2024-04-04T00:02:46.000Z,0
2024-04-04T00:03:50.000Z,0
2024-04-04T00:04:54.000Z,0
2024-04-04T00:05:58.000Z,0
2024-04-04T00:07:02.000Z,0
2024-04-04T00:08:06.000Z,0
2024-04-04T00:09:11.000Z,0
2024-04-04T00:10:15.000Z,0
2024-04-04T00:11:19.000Z,0
2024-04-04T00:12:23.000Z,0
2024-04-04T00:13:27.000Z,0
2024-04-04T00:14:31.000Z,0
2024-04-04T00:15:35.000Z,0
2024-04-04T00:16:39.000Z,0
2024-04-04T00:17:44.000Z,0
2024-04-04T00:18:48.000Z,0
2024-04-04T00:19:52.000Z,0
2024-04-04T00:20:56.000Z,0
2024-04-04T00:22:00.000Z,0
2024-04-04T00:23:04.000Z,0
2024-04-04T00:24:09.000Z,0
2024-04-04T00:25:13.000Z,0
2024-04-04T00:26:17.000Z,0
2024-04-04T00:27:21.000Z,0
2024-04-04T00:28:25.000Z,0
2024-04-04T00:29:29.000Z,0
2024-04-04T00:30:34.000Z,0
2024-04-04T00:31:38.000Z,0
2024-04-04T00:32:42.000Z,0
2024-04-04T00:33:46.000Z,0
2024-04-04T00:34:50.000Z,0
2024-04-04T00:35:54.000Z,0
2024-04-04T00:36:58.000Z,0
2024-04-04T00:38:03.000Z,0
2024-04-04T00:39:07.000Z,0
2024-04-04T00:40:11.000Z,0
2024-04-04T00:41:15.000Z,0
2024-04-04T00:42:19.000Z,0
2024-04-04T00:43:23.000Z,0
2024-04-04T00:44:28.000Z,0
2024-04-04T00:45:32.000Z,0
2024-04-04T00:46:36.000Z,0
2024-04-04T00:47:40.000Z,0
2024-04-04T00:48:44.000Z,0
2024-04-04T00:49:48.000Z,0
2024-04-04T00:50:52.000Z,0
2024-04-04T00:51:57.000Z,0
2024-04-04T00:53:01.000Z,0
2024-04-04T00:54:05.000Z,0
2024-04-04T00:55:09.000Z,0
2024-04-04T00:56:13.000Z,0
2024-04-04T00:57:17.000Z,0
2024-04-04T00:58:21.000Z,0
2024-04-04T00:59:26.000Z,0
2024-04-04T01:00:30.000Z,0
2024-04-04T01:01:34.000Z,0
2024-04-04T01:02:38.000Z,0
2024-04-04T01:03:42.000Z,0
2024-04-04T01:04:46.000Z,0
2024-04-04T01:05:50.000Z,0
2024-04-04T01:06:55.000Z,0
2024-04-04T01:07:59.000Z,0
2024-04-04T01:09:03.000Z,0
2024-04-04T01:10:07.000Z,0
2024-04-04T01:11:11.000Z,0
2024-04-04T01:12:15.000Z,0
2024-04-04T01:13:19.000Z,0
2024-04-04T01:14:24.000Z,0
2024-04-04T01:15:28.000Z,0
2024-04-04T01:16:32.000Z,0
2024-04-04T01:17:36.000Z,0
2024-04-04T01:18:40.000Z,0
2024-04-04T01:19:44.000Z,0
2024-04-04T01:20:49.000Z,0
2024-04-04T01:21:53.000Z,0
2024-04-04T01:22:57.000Z,0
2024-04-04T01:24:01.000Z,0
2024-04-04T01:25:05.000Z,0
2024-04-04T01:26:09.000Z,0
2024-04-04T01:27:13.000Z,0
2024-04-04T01:28:17.000Z,0
2024-04-04T01:29:22.000Z,0
2024-04-04T01:30:26.000Z,0
2024-04-04T01:31:30.000Z,0
2024-04-04T01:32:34.000Z,0
2024-04-04T01:33:38.000Z,0
2024-04-04T01:34:42.000Z,0
2024-04-04T01:35:47.000Z,0
2024-04-04T01:36:51.000Z,0
2024-04-04T01:37:55.000Z,0
2024-04-04T01:38:59.000Z,0
2024-04-04T01:40:03.000Z,0
2024-04-04T01:41:07.000Z,0
2024-04-04T01:42:11.000Z,0
2024-04-04T01:43:16.000Z,0
2024-04-04T01:44:20.000Z,0
2024-04-04T01:45:24.000Z,0
2024-04-04T01:46:28.000Z,0
2024-04-04T01:47:32.000Z,0
2024-04-04T01:48:36.000Z,0
2024-04-04T01:49:41.000Z,0
2024-04-04T01:50:45.000Z,0
2024-04-04T01:51:49.000Z,0
2024-04-04T01:52:53.000Z,0
2024-04-04T01:53:57.000Z,0
2024-04-04T01:55:01.000Z,0
2024-04-04T01:56:05.000Z,0
2024-04-04T01:57:09.000Z,0
2024-04-04T01:58:14.000Z,0
2024-04-04T01:59:18.000Z,0
2024-04-04T02:00:22.000Z,0
2024-04-04T02:01:26.000Z,0
2024-04-04T02:02:30.000Z,0
2024-04-04T02:03:34.000Z,0
2024-04-04T02:04:39.000Z,0
2024-04-04T02:05:43.000Z,0
2024-04-04T02:06:47.000Z,0
2024-04-04T02:07:51.000Z,0
2024-04-04T02:08:55.000Z,0
2024-04-04T02:09:59.000Z,0
2024-04-04T02:11:04.000Z,0
2024-04-04T02:12:08.000Z,0
2024-04-04T02:13:12.000Z,0
2024-04-04T02:14:16.000Z,0
2024-04-04T02:15:20.000Z,0
2024-04-04T02:16:24.000Z,0
2024-04-04T02:17:28.000Z,0
2024-04-04T02:18:33.000Z,0
2024-04-04T02:19:37.000Z,0
2024-04-04T02:20:41.000Z,0
2024-04-04T02:21:45.000Z,0
2024-04-04T02:22:49.000Z,0
2024-04-04T02:23:53.000Z,0
2024-04-04T02:24:57.000Z,0
2024-04-04T02:26:02.000Z,0
2024-04-04T02:27:06.000Z,0
2024-04-04T02:28:10.000Z,0
2024-04-04T02:29:14.000Z,0
2024-04-04T02:30:18.000Z,0
2024-04-04T02:31:22.000Z,0
2024-04-04T02:32:26.000Z,0
2024-04-04T02:33:31.000Z,0
2024-04-04T02:34:35.000Z,0
2024-04-04T02:35:39.000Z,0
2024-04-04T02:36:43.000Z,0
2024-04-04T02:37:47.000Z,0
2024-04-04T02:38:51.000Z,0
2024-04-04T02:39:56.000Z,0
2024-04-04T02:41:00.000Z,0
2024-04-04T02:42:04.000Z,0
2024-04-04T02:43:08.000Z,0
2024-04-04T02:44:12.000Z,0
2024-04-04T02:45:16.000Z,0
2024-04-04T02:46:20.000Z,0
2024-04-04T02:47:25.000Z,0
2024-04-04T02:48:29.000Z,0
2024-04-04T02:49:33.000Z,0
2024-04-04T02:50:37.000Z,0
2024-04-04T02:51:41.000Z,0
2024-04-04T02:52:45.000Z,0
2024-04-04T02:53:50.000Z,0
2024-04-04T02:54:54.000Z,0
2024-04-04T02:55:58.000Z,0
2024-04-04T02:57:02.000Z,0
2024-04-04T02:58:06.000Z,0
2024-04-04T02:59:10.000Z,0
2024-04-04T03:00:14.000Z,0
2024-04-04T03:01:18.000Z,0
2024-04-04T03:02:23.000Z,0
2024-04-04T03:03:27.000Z,0
2024-04-04T03:04:31.000Z,0
2024-04-04T03:05:35.000Z,0
2024-04-04T03:06:39.000Z,0
2024-04-04T03:07:43.000Z,0
2024-04-04T03:08:47.000Z,0
2024-04-04T03:09:52.000Z,0
2024-04-04T03:10:56.000Z,0
2024-04-04T03:12:00.000Z,0
2024-04-04T03:13:04.000Z,0
2024-04-04T03:14:08.000Z,0
2024-04-04T03:15:12.000Z,0
2024-04-04T03:16:16.000Z,0
2024-04-04T03:17:21.000Z,0
2024-04-04T03:18:25.000Z,0
2024-04-04T03:19:29.000Z,0
2024-04-04T03:20:33.000Z,0
2024-04-04T03:21:37.000Z,0
2024-04-04T03:22:41.000Z,0
2024-04-04T03:23:45.000Z,0
2024-04-04T03:24:50.000Z,0
2024-04-04T03:25:54.000Z,0
2024-04-04T03:26:58.000Z,0
2024-04-04T03:28:02.000Z,0
2024-04-04T03:29:06.000Z,0
2024-04-04T03:30:10.000Z,0
2024-04-04T03:31:15.000Z,0
2024-04-04T03:32:19.000Z,0
2024-04-04T03:33:23.000Z,0
2024-04-04T03:34:27.000Z,0
2024-04-04T03:35:31.000Z,0
2024-04-04T03:36:35.000Z,0
2024-04-04T03:37:39.000Z,0
2024-04-04T03:38:43.000Z,0
2024-04-04T03:39:48.000Z,0
2024-04-04T03:40:52.000Z,0
2024-04-04T03:41:56.000Z,0
2024-04-04T03:43:00.000Z,0
2024-04-04T03:44:04.000Z,0
2024-04-04T03:45:08.000Z,0
2024-04-04T03:46:13.000Z,0
2024-04-04T03:47:17.000Z,0
2024-04-04T03:48:21.000Z,0
2024-04-04T03:49:25.000Z,0
2024-04-04T03:50:29.000Z,0
2024-04-04T03:51:33.000Z,0
2024-04-04T03:52:37.000Z,0
2024-04-04T03:53:41.000Z,0
2024-04-04T03:54:46.000Z,0
2024-04-04T03:55:50.000Z,0
2024-04-04T03:56:54.000Z,0
2024-04-04T03:57:58.000Z,0
2024-04-04T03:59:02.000Z,0
2024-04-04T04:00:07.000Z,0
2024-04-04T04:01:11.000Z,0
2024-04-04T04:02:15.000Z,0
2024-04-04T04:03:19.000Z,0
2024-04-04T04:04:23.000Z,0
2024-04-04T04:05:27.000Z,0
2024-04-04T04:06:31.000Z,0
2024-04-04T04:07:35.000Z,0
2024-04-04T04:08:40.000Z,0
2024-04-04T04:09:44.000Z,0
2024-04-04T04:10:48.000Z,0
2024-04-04T04:11:52.000Z,0
2024-04-04T04:12:56.000Z,0
2024-04-04T04:14:00.000Z,0
2024-04-04T04:15:05.000Z,0
2024-04-04T04:16:09.000Z,0
2024-04-04T04:17:13.000Z,0
2024-04-04T04:18:17.000Z,0
2024-04-04T04:19:21.000Z,0
2024-04-04T04:20:25.000Z,0
2024-04-04T04:21:30.000Z,0
2024-04-04T04:22:34.000Z,0
2024-04-04T04:23:38.000Z,0
2024-04-04T04:24:42.000Z,0
2024-04-04T04:25:46.000Z,1
2024-04-04T04:26:50.000Z,1
2024-04-04T04:27:54.000Z,1
2024-04-04T04:28:59.000Z,1
2024-04-04T04:30:03.000Z,1
2024-04-04T04:31:07.000Z,2
2024-04-04T04:32:11.000Z,2
2024-04-04T04:33:15.000Z,2
2024-04-04T04:34:19.000Z,2
2024-04-04T04:35:24.000Z,3
2024-04-04T04:36:28.000Z,3
2024-04-04T04:37:32.000Z,3
2024-04-04T04:38:36.000Z,4
2024-04-04T04:39:40.000Z,4
2024-04-04T04:40:44.000Z,5
2024-04-04T04:41:48.000Z,5
2024-04-04T04:42:52.000Z,6
2024-04-04T04:43:57.000Z,6
2024-04-04T04:45:01.000Z,6
2024-04-04T04:46:05.000Z,7
2024-04-04T04:47:09.000Z,7
2024-04-04T04:48:13.000Z,8
2024-04-04T04:49:17.000Z,9
2024-04-04T04:50:22.000Z,9
2024-04-04T04:51:26.000Z,10
2024-04-04T04:52:30.000Z,10
2024-04-04T04:53:34.000Z,11
2024-04-04T04:54:38.000Z,12
2024-04-04T04:55:42.000Z,12
2024-04-04T04:56:46.000Z,13
2024-04-04T04:57:51.000Z,14
2024-04-04T04:58:55.000Z,14
2024-04-04T04:59:59.000Z,15
2024-04-04T05:01:03.000Z,16
2024-04-04T05:02:07.000Z,17
2024-04-04T05:03:11.000Z,19
2024-04-04T05:04:15.000Z,19
2024-04-04T05:05:20.000Z,20
2024-04-04T05:06:24.000Z,21
2024-04-04T05:07:28.000Z,21
2024-04-04T05:08:32.000Z,23
2024-04-04T05:09:36.000Z,23
2024-04-04T05:10:40.000Z,25
2024-04-04T05:11:45.000Z,26
2024-04-04T05:12:49.000Z,27
2024-04-04T05:13:53.000Z,28
2024-04-04T05:14:57.000Z,30
2024-04-04T05:16:01.000Z,30
2024-04-04T05:17:05.000Z,30
2024-04-04T05:18:09.000Z,31
2024-04-04T05:19:14.000Z,31
2024-04-04T05:20:18.000Z,32
2024-04-04T05:21:22.000Z,33
2024-04-04T05:22:26.000Z,33
2024-04-04T05:23:30.000Z,33
2024-04-04T05:24:34.000Z,33
2024-04-04T05:25:38.000Z,33
2024-04-04T05:26:43.000Z,32
2024-04-04T05:27:47.000Z,32
2024-04-04T05:28:51.000Z,32
2024-04-04T05:29:55.000Z,33
2024-04-04T05:30:59.000Z,33
2024-04-04T05:32:03.000Z,34
2024-04-04T05:33:07.000Z,34
2024-04-04T05:34:12.000Z,35
2024-04-04T05:35:16.000Z,36
2024-04-04T05:36:20.000Z,37
2024-04-04T05:37:24.000Z,38
2024-04-04T05:38:28.000Z,40
2024-04-04T05:39:32.000Z,41
2024-04-04T05:40:36.000Z,43
2024-04-04T05:41:41.000Z,45
2024-04-04T05:42:45.000Z,47
2024-04-04T05:43:49.000Z,50
2024-04-04T05:44:53.000Z,52
2024-04-04T05:45:57.000Z,56
2024-04-04T05:47:01.000Z,59
2024-04-04T05:48:05.000Z,62
2024-04-04T05:49:09.000Z,64
2024-04-04T05:50:14.000Z,67
2024-04-04T05:51:18.000Z,70
2024-04-04T05:52:22.000Z,72
2024-04-04T05:53:26.000Z,72
2024-04-04T05:54:30.000Z,72
2024-04-04T05:55:34.000Z,70
2024-04-04T05:56:39.000Z,68
2024-04-04T05:57:43.000Z,66
2024-04-04T05:58:47.000Z,64
2024-04-04T05:59:51.000Z,62
2024-04-04T06:00:55.000Z,61
2024-04-04T06:01:59.000Z,59
2024-04-04T06:03:04.000Z,55
2024-04-04T06:04:08.000Z,53
2024-04-04T06:05:12.000Z,52
2024-04-04T06:06:16.000Z,51
2024-04-04T06:07:20.000Z,50
2024-04-04T06:08:24.000Z,49
2024-04-04T06:09:28.000Z,47
2024-04-04T06:10:33.000Z,48
2024-04-04T06:11:37.000Z,48
2024-04-04T06:12:41.000Z,45
2024-04-04T06:13:45.000Z,44
2024-04-04T06:14:49.000Z,44
2024-04-04T06:15:53.000Z,44
2024-04-04T06:16:57.000Z,41
2024-04-04T06:18:01.000Z,41
2024-04-04T06:19:06.000Z,41
2024-04-04T06:20:10.000Z,43
2024-04-04T06:21:14.000Z,44
2024-04-04T06:22:18.000Z,43
2024-04-04T06:23:22.000Z,42
2024-04-04T06:24:26.000Z,42
2024-04-04T06:25:30.000Z,43
2024-04-04T06:26:35.000Z,46
2024-04-04T06:27:39.000Z,48
2024-04-04T06:28:43.000Z,48
2024-04-04T06:29:47.000Z,51
2024-04-04T06:30:52.000Z,51
2024-04-04T06:31:56.000Z,53
2024-04-04T06:33:00.000Z,55
2024-04-04T06:34:04.000Z,56
2024-04-04T06:35:08.000Z,58
2024-04-04T06:36:12.000Z,62
2024-04-04T06:37:16.000Z,62
2024-04-04T06:38:21.000Z,63
2024-04-04T06:39:25.000Z,66
2024-04-04T06:40:29.000Z,68
2024-04-04T06:41:33.000Z,72
2024-04-04T06:42:37.000Z,76
2024-04-04T06:43:41.000Z,85
2024-04-04T06:44:45.000Z,87
2024-04-04T06:45:50.000Z,92
2024-04-04T06:46:54.000Z,96
2024-04-04T06:47:58.000Z,101
2024-04-04T06:49:02.000Z,109
2024-04-04T06:50:06.000Z,123
2024-04-04T06:51:10.000Z,147
2024-04-04T06:52:14.000Z,163
2024-04-04T06:53:18.000Z,153
2024-04-04T06:54:23.000Z,135
2024-04-04T06:55:27.000Z,131
2024-04-04T06:56:31.000Z,139
2024-04-04T06:57:35.000Z,134
2024-04-04T06:58:39.000Z,136
2024-04-04T06:59:43.000Z,139
2024-04-04T07:00:47.000Z,143
2024-04-04T07:01:52.000Z,149
2024-04-04T07:02:56.000Z,162
2024-04-04T07:04:00.000Z,155
2024-04-04T07:05:04.000Z,156
2024-04-04T07:06:08.000Z,162
2024-04-04T07:07:12.000Z,154
2024-04-04T07:08:16.000Z,152
2024-04-04T07:09:20.000Z,164
2024-04-04T07:10:25.000Z,145
2024-04-04T07:11:29.000Z,141
2024-04-04T07:12:33.000Z,130
2024-04-04T07:13:37.000Z,116
2024-04-04T07:14:41.000Z,109
2024-04-04T07:15:45.000Z,106
2024-04-04T07:16:49.000Z,103
2024-04-04T07:17:54.000Z,102
2024-04-04T07:18:58.000Z,103
2024-04-04T07:20:02.000Z,105
2024-04-04T07:21:06.000Z,110
2024-04-04T07:22:10.000Z,116
2024-04-04T07:23:14.000Z,120
2024-04-04T07:24:18.000Z,126
2024-04-04T07:25:23.000Z,132
2024-04-04T07:26:27.000Z,139
2024-04-04T07:27:31.000Z,145
2024-04-04T07:28:35.000Z,148
2024-04-04T07:29:39.000Z,151
2024-04-04T07:30:43.000Z,154
2024-04-04T07:31:47.000Z,155
2024-04-04T07:32:52.000Z,158
2024-04-04T07:33:56.000Z,173
2024-04-04T07:35:00.000Z,177
2024-04-04T07:36:04.000Z,185
2024-04-04T07:37:08.000Z,195
2024-04-04T07:38:13.000Z,191
2024-04-04T07:39:17.000Z,191
2024-04-04T07:40:21.000Z,184
2024-04-04T07:41:25.000Z,170
2024-04-04T07:42:29.000Z,161
2024-04-04T07:43:33.000Z,148
2024-04-04T07:44:37.000Z,148
2024-04-04T07:45:42.000Z,151
2024-04-04T07:46:46.000Z,156
2024-04-04T07:47:50.000Z,165
2024-04-04T07:48:54.000Z,180
2024-04-04T07:49:58.000Z,194
2024-04-04T07:51:02.000Z,208
2024-04-04T07:52:06.000Z,204
2024-04-04T07:53:11.000Z,209
2024-04-04T07:54:15.000Z,200
2024-04-04T07:55:19.000Z,200
2024-04-04T07:56:23.000Z,190
2024-04-04T07:57:27.000Z,184
2024-04-04T07:58:31.000Z,184
2024-04-04T07:59:35.000Z,190
2024-04-04T08:00:39.000Z,197
2024-04-04T08:01:44.000Z,205
2024-04-04T08:02:48.000Z,216
2024-04-04T08:03:52.000Z,199
2024-04-04T08:04:56.000Z,180
2024-04-04T08:06:00.000Z,175
2024-04-04T08:07:04.000Z,172
2024-04-04T08:08:08.000Z,165
2024-04-04T08:09:13.000Z,153
2024-04-04T08:10:17.000Z,134
2024-04-04T08:11:21.000Z,117
2024-04-04T08:12:25.000Z,108
2024-04-04T08:13:29.000Z,105
2024-04-04T08:14:33.000Z,106
2024-04-04T08:15:38.000Z,104
2024-04-04T08:16:42.000Z,101
2024-04-04T08:17:46.000Z,105
2024-04-04T08:18:50.000Z,112
2024-04-04T08:19:54.000Z,111
2024-04-04T08:20:58.000Z,102
2024-04-04T08:22:02.000Z,98
2024-04-04T08:23:07.000Z,92
2024-04-04T08:24:11.000Z,86
2024-04-04T08:25:15.000Z,88
2024-04-04T08:26:19.000Z,91
2024-04-04T08:27:23.000Z,95
2024-04-04T08:28:27.000Z,100
2024-04-04T08:29:31.000Z,93
2024-04-04T08:30:36.000Z,84
2024-04-04T08:31:40.000Z,89
2024-04-04T08:32:44.000Z,99
2024-04-04T08:33:48.000Z,99
2024-04-04T08:34:52.000Z,98
2024-04-04T08:35:56.000Z,100
2024-04-04T08:37:00.000Z,92
2024-04-04T08:38:04.000Z,90
2024-04-04T08:39:09.000Z,102
2024-04-04T08:40:13.000Z,106
2024-04-04T08:41:17.000Z,102
2024-04-04T08:42:21.000Z,105
2024-04-04T08:43:25.000Z,106
2024-04-04T08:44:29.000Z,106
2024-04-04T08:45:34.000Z,101
2024-04-04T08:46:38.000Z,94
2024-04-04T08:47:42.000Z,92
2024-04-04T08:48:46.000Z,93
2024-04-04T08:49:50.000Z,94
2024-04-04T08:50:54.000Z,100
2024-04-04T08:51:59.000Z,111
2024-04-04T08:53:03.000Z,119
2024-04-04T08:54:07.000Z,118
2024-04-04T08:55:11.000Z,123
2024-04-04T08:56:15.000Z,136
2024-04-04T08:57:19.000Z,149
2024-04-04T08:58:24.000Z,156
2024-04-04T08:59:28.000Z,159
2024-04-04T09:00:32.000Z,155
2024-04-04T09:01:36.000Z,158
2024-04-04T09:02:40.000Z,160
2024-04-04T09:03:44.000Z,148
2024-04-04T09:04:48.000Z,144
2024-04-04T09:05:52.000Z,144
2024-04-04T09:06:57.000Z,133
2024-04-04T09:08:01.000Z,128
2024-04-04T09:09:05.000Z,152
2024-04-04T09:10:09.000Z,188
2024-04-04T09:11:13.000Z,210
2024-04-04T09:12:17.000Z,217
2024-04-04T09:13:21.000Z,221
2024-04-04T09:14:26.000Z,215
2024-04-04T09:15:30.000Z,207
2024-04-04T09:16:34.000Z,218
2024-04-04T09:17:38.000Z,235
2024-04-04T09:18:42.000Z,265
2024-04-04T09:19:46.000Z,307
2024-04-04T09:20:50.000Z,338
2024-04-04T09:21:55.000Z,343
2024-04-04T09:22:59.000Z,282
2024-04-04T09:24:03.000Z,267
2024-04-04T09:25:07.000Z,263
2024-04-04T09:26:11.000Z,253
2024-04-04T09:27:15.000Z,241
2024-04-04T09:28:20.000Z,225
2024-04-04T09:29:24.000Z,235
2024-04-04T09:30:28.000Z,245
2024-04-04T09:31:32.000Z,239
2024-04-04T09:32:36.000Z,226
2024-04-04T09:33:40.000Z,208
2024-04-04T09:34:45.000Z,204
2024-04-04T09:35:49.000Z,183
2024-04-04T09:36:53.000Z,188
2024-04-04T09:37:57.000Z,167
2024-04-04T09:39:01.000Z,151
2024-04-04T09:40:05.000Z,145
2024-04-04T09:41:09.000Z,158
2024-04-04T09:42:14.000Z,193
2024-04-04T09:43:18.000Z,199
2024-04-04T09:44:22.000Z,199
2024-04-04T09:45:26.000Z,210
2024-04-04T09:46:30.000Z,218
2024-04-04T09:47:34.000Z,219
2024-04-04T09:48:38.000Z,218
2024-04-04T09:49:43.000Z,217
2024-04-04T09:50:47.000Z,219
2024-04-04T09:51:51.000Z,191
2024-04-04T09:52:55.000Z,210
2024-04-04T09:53:59.000Z,226
2024-04-04T09:55:03.000Z,232
2024-04-04T09:56:08.000Z,240
2024-04-04T09:57:12.000Z,226
2024-04-04T09:58:16.000Z,192
2024-04-04T09:59:20.000Z,167
2024-04-04T10:00:24.000Z,147
2024-04-04T10:01:28.000Z,155
2024-04-04T10:02:32.000Z,155
2024-04-04T10:03:37.000Z,135
2024-04-04T10:04:41.000Z,119
2024-04-04T10:05:45.000Z,107
2024-04-04T10:06:49.000Z,100
2024-04-04T10:07:53.000Z,120
2024-04-04T10:08:57.000Z,130
2024-04-04T10:10:01.000Z,137
2024-04-04T10:11:05.000Z,135
2024-04-04T10:12:10.000Z,120
2024-04-04T10:13:14.000Z,114
2024-04-04T10:14:18.000Z,119
2024-04-04T10:15:22.000Z,125
2024-04-04T10:16:26.000Z,132
2024-04-04T10:17:30.000Z,138
2024-04-04T10:18:34.000Z,149
2024-04-04T10:19:39.000Z,124
2024-04-04T10:20:43.000Z,104
2024-04-04T10:21:47.000Z,95
2024-04-04T10:22:51.000Z,76
2024-04-04T10:23:55.000Z,71
2024-04-04T10:25:00.000Z,81
2024-04-04T10:26:04.000Z,92
2024-04-04T10:27:08.000Z,109
2024-04-04T10:28:12.000Z,130
2024-04-04T10:29:16.000Z,141
2024-04-04T10:30:20.000Z,150
2024-04-04T10:31:24.000Z,156
2024-04-04T10:32:29.000Z,162
2024-04-04T10:33:33.000Z,162
2024-04-04T10:34:37.000Z,161
2024-04-04T10:35:41.000Z,147
2024-04-04T10:36:45.000Z,136
2024-04-04T10:37:49.000Z,130
2024-04-04T10:38:53.000Z,122
2024-04-04T10:39:58.000Z,114
2024-04-04T10:41:02.000Z,111
2024-04-04T10:42:06.000Z,114
2024-04-04T10:43:10.000Z,124
2024-04-04T10:44:14.000Z,138
2024-04-04T10:45:18.000Z,142
2024-04-04T10:46:23.000Z,137
2024-04-04T10:47:27.000Z,128
2024-04-04T10:48:31.000Z,122
2024-04-04T10:49:35.000Z,121
2024-04-04T10:50:39.000Z,119
2024-04-04T10:51:43.000Z,120
2024-04-04T10:52:47.000Z,125
2024-04-04T10:53:52.000Z,126
2024-04-04T10:54:56.000Z,122
2024-04-04T10:56:00.000Z,115
2024-04-04T10:57:04.000Z,108
2024-04-04T10:58:08.000Z,102
2024-04-04T10:59:12.000Z,96
2024-04-04T11:00:16.000Z,91
2024-04-04T11:01:21.000Z,90
2024-04-04T11:02:25.000Z,90
2024-04-04T11:03:29.000Z,91
2024-04-04T11:04:33.000Z,92
2024-04-04T11:05:37.000Z,95
2024-04-04T11:06:41.000Z,98
2024-04-04T11:07:45.000Z,101
2024-04-04T11:08:49.000Z,104
2024-04-04T11:09:54.000Z,110
2024-04-04T11:10:58.000Z,114
2024-04-04T11:12:02.000Z,113
2024-04-04T11:13:06.000Z,112
2024-04-04T11:14:10.000Z,113
2024-04-04T11:15:14.000Z,115
2024-04-04T11:16:19.000Z,117
2024-04-04T11:17:23.000Z,125
2024-04-04T11:18:27.000Z,136
2024-04-04T11:19:31.000Z,144
2024-04-04T11:20:35.000Z,153
2024-04-04T11:21:39.000Z,162
2024-04-04T11:22:43.000Z,172
2024-04-04T11:23:48.000Z,188
2024-04-04T11:24:52.000Z,204
2024-04-04T11:25:56.000Z,215
2024-04-04T11:27:00.000Z,223
2024-04-04T11:28:04.000Z,227
2024-04-04T11:29:08.000Z,231
2024-04-04T11:30:12.000Z,229
2024-04-04T11:31:17.000Z,220
2024-04-04T11:32:21.000Z,216
2024-04-04T11:33:25.000Z,220
2024-04-04T11:34:29.000Z,224
2024-04-04T11:35:33.000Z,220
2024-04-04T11:36:37.000Z,206
2024-04-04T11:37:41.000Z,190
2024-04-04T11:38:46.000Z,183
2024-04-04T11:39:50.000Z,185
2024-04-04T11:40:54.000Z,194
2024-04-04T11:41:58.000Z,215
2024-04-04T11:43:02.000Z,258
2024-04-04T11:44:06.000Z,262
2024-04-04T11:45:10.000Z,267
2024-04-04T11:46:15.000Z,268
2024-04-04T11:47:19.000Z,266
2024-04-04T11:48:23.000Z,250
2024-04-04T11:49:27.000Z,233
2024-04-04T11:50:31.000Z,217
2024-04-04T11:51:35.000Z,188
2024-04-04T11:52:39.000Z,156
2024-04-04T11:53:43.000Z,152
2024-04-04T11:54:48.000Z,145
2024-04-04T11:55:52.000Z,153
2024-04-04T11:56:56.000Z,152
2024-04-04T11:58:00.000Z,150
2024-04-04T11:59:04.000Z,135
2024-04-04T12:00:08.000Z,118
2024-04-04T12:01:13.000Z,119
2024-04-04T12:02:17.000Z,126
2024-04-04T12:03:21.000Z,133
2024-04-04T12:04:25.000Z,139
2024-04-04T12:05:29.000Z,140
2024-04-04T12:06:33.000Z,138
2024-04-04T12:07:37.000Z,138
2024-04-04T12:08:42.000Z,122
2024-04-04T12:09:46.000Z,106
2024-04-04T12:10:50.000Z,114
2024-04-04T12:11:54.000Z,107
2024-04-04T12:12:58.000Z,117
2024-04-04T12:14:02.000Z,120
2024-04-04T12:15:06.000Z,121
2024-04-04T12:16:11.000Z,129
2024-04-04T12:17:15.000Z,135
2024-04-04T12:18:19.000Z,133
2024-04-04T12:19:23.000Z,142
2024-04-04T12:20:27.000Z,145
2024-04-04T12:21:31.000Z,159
2024-04-04T12:22:35.000Z,177
2024-04-04T12:23:40.000Z,204
2024-04-04T12:24:44.000Z,220
2024-04-04T12:25:48.000Z,228
2024-04-04T12:26:52.000Z,232
2024-04-04T12:27:56.000Z,229
2024-04-04T12:29:00.000Z,224
2024-04-04T12:30:05.000Z,240
2024-04-04T12:31:09.000Z,249
2024-04-04T12:32:13.000Z,239
2024-04-04T12:33:17.000Z,222
2024-04-04T12:34:21.000Z,203
2024-04-04T12:35:26.000Z,197
2024-04-04T12:36:30.000Z,184
2024-04-04T12:37:34.000Z,159
2024-04-04T12:38:38.000Z,137
2024-04-04T12:39:42.000Z,145
2024-04-04T12:40:46.000Z,165
2024-04-04T12:41:50.000Z,191
2024-04-04T12:42:55.000Z,190
2024-04-04T12:43:59.000Z,178
2024-04-04T12:45:03.000Z,175
2024-04-04T12:46:07.000Z,171
2024-04-04T12:47:11.000Z,141
2024-04-04T12:48:15.000Z,119
2024-04-04T12:49:19.000Z,109
2024-04-04T12:50:24.000Z,125
2024-04-04T12:51:28.000Z,126
2024-04-04T12:52:32.000Z,142
2024-04-04T12:53:36.000Z,148
2024-04-04T12:54:40.000Z,142
2024-04-04T12:55:44.000Z,139
2024-04-04T12:56:49.000Z,138
2024-04-04T12:57:53.000Z,138
2024-04-04T12:58:57.000Z,133
2024-04-04T13:00:01.000Z,125
2024-04-04T13:01:05.000Z,124
2024-04-04T13:02:09.000Z,114
2024-04-04T13:03:13.000Z,121
2024-04-04T13:04:17.000Z,131
2024-04-04T13:05:22.000Z,118
2024-04-04T13:06:26.000Z,109
2024-04-04T13:07:30.000Z,103
2024-04-04T13:08:34.000Z,90
2024-04-04T13:09:38.000Z,76
2024-04-04T13:10:43.000Z,64
2024-04-04T13:11:47.000Z,55
2024-04-04T13:12:51.000Z,51
2024-04-04T13:13:55.000Z,48
2024-04-04T13:14:59.000Z,50
2024-04-04T13:16:04.000Z,50
2024-04-04T13:17:08.000Z,48
2024-04-04T13:18:12.000Z,57
2024-04-04T13:19:16.000Z,67
2024-04-04T13:20:20.000Z,63
2024-04-04T13:21:24.000Z,60
2024-04-04T13:22:29.000Z,59
2024-04-04T13:23:33.000Z,53
2024-04-04T13:24:37.000Z,49
2024-04-04T13:25:41.000Z,59
2024-04-04T13:26:45.000Z,73
2024-04-04T13:27:49.000Z,99
2024-04-04T13:28:53.000Z,113
2024-04-04T13:29:58.000Z,110
2024-04-04T13:31:02.000Z,118
2024-04-04T13:32:06.000Z,104
2024-04-04T13:33:10.000Z,106
2024-04-04T13:34:14.000Z,129
2024-04-04T13:35:18.000Z,162
2024-04-04T13:36:22.000Z,141
2024-04-04T13:37:27.000Z,126
2024-04-04T13:38:31.000Z,100
2024-04-04T13:39:35.000Z,92
2024-04-04T13:40:39.000Z,115
2024-04-04T13:41:43.000Z,149
2024-04-04T13:42:47.000Z,192
2024-04-04T13:43:51.000Z,221
2024-04-04T13:44:56.000Z,245
2024-04-04T13:46:00.000Z,266
2024-04-04T13:47:04.000Z,251
2024-04-04T13:48:08.000Z,271
2024-04-04T13:49:12.000Z,355
2024-04-04T13:50:16.000Z,228
2024-04-04T13:51:21.000Z,213
2024-04-04T13:52:25.000Z,186
2024-04-04T13:53:29.000Z,189
2024-04-04T13:54:33.000Z,177
2024-04-04T13:55:37.000Z,153
2024-04-04T13:56:41.000Z,159
2024-04-04T13:57:45.000Z,147
2024-04-04T13:58:50.000Z,119
2024-04-04T13:59:54.000Z,102
2024-04-04T14:00:58.000Z,74
2024-04-04T14:02:02.000Z,61
2024-04-04T14:03:06.000Z,53
2024-04-04T14:04:10.000Z,61
2024-04-04T14:05:14.000Z,70
2024-04-04T14:06:18.000Z,71
2024-04-04T14:07:23.000Z,62
2024-04-04T14:08:27.000Z,56
2024-04-04T14:09:31.000Z,60
2024-04-04T14:10:35.000Z,81
2024-04-04T14:11:39.000Z,133
2024-04-04T14:12:43.000Z,184
2024-04-04T14:13:48.000Z,204
2024-04-04T14:14:52.000Z,208
2024-04-04T14:15:56.000Z,181
2024-04-04T14:17:00.000Z,147
2024-04-04T14:18:04.000Z,177
2024-04-04T14:19:08.000Z,151
2024-04-04T14:20:13.000Z,150
2024-04-04T14:21:17.000Z,140
2024-04-04T14:22:21.000Z,132
2024-04-04T14:23:25.000Z,125
2024-04-04T14:24:29.000Z,131
2024-04-04T14:25:33.000Z,215
2024-04-04T14:26:38.000Z,173
2024-04-04T14:27:42.000Z,162
2024-04-04T14:28:46.000Z,128
2024-04-04T14:29:50.000Z,104
2024-04-04T14:30:54.000Z,143
2024-04-04T14:31:58.000Z,144
2024-04-04T14:33:02.000Z,120
2024-04-04T14:34:07.000Z,98
2024-04-04T14:35:11.000Z,75
2024-04-04T14:36:15.000Z,59
2024-04-04T14:37:19.000Z,41
2024-04-04T14:38:23.000Z,31
2024-04-04T14:39:27.000Z,28
2024-04-04T14:40:31.000Z,30
2024-04-04T14:41:36.000Z,31
2024-04-04T14:42:40.000Z,29
2024-04-04T14:43:44.000Z,27
2024-04-04T14:44:48.000Z,25
2024-04-04T14:45:52.000Z,26
2024-04-04T14:46:56.000Z,33
2024-04-04T14:48:00.000Z,41
2024-04-04T14:49:05.000Z,52
2024-04-04T14:50:09.000Z,65
2024-04-04T14:51:13.000Z,80
2024-04-04T14:52:17.000Z,100
2024-04-04T14:53:21.000Z,111
2024-04-04T14:54:25.000Z,109
2024-04-04T14:55:30.000Z,104
2024-04-04T14:56:34.000Z,103
2024-04-04T14:57:38.000Z,103
2024-04-04T14:58:42.000Z,104
2024-04-04T14:59:46.000Z,102
2024-04-04T15:00:51.000Z,99
2024-04-04T15:01:55.000Z,94
2024-04-04T15:02:59.000Z,88
2024-04-04T15:04:03.000Z,82
2024-04-04T15:05:07.000Z,80
2024-04-04T15:06:11.000Z,76
2024-04-04T15:07:15.000Z,72
2024-04-04T15:08:19.000Z,67
2024-04-04T15:09:24.000Z,62
2024-04-04T15:10:28.000Z,60